sensor_id;sensor_type;location;lat;lon;timestamp;P1;durP1;ratioP1;P2;durP2;ratioP2
71003;SDS011;59025;42.050;-8.660;2022-08-11T00:01:06;12.03;;;7.77;;
71003;SDS011;59025;42.050;-8.660;2022-08-11T00:03:38;12.77;;;8.10;;
71003;SDS011;59025;42.050;-8.660;2022-08-11T00:06:10;14.00;;;7.93;;
71003;SDS011;59025;42.050;-8.660;2022-08-11T00:08:38;11.93;;;7.70;;
71003;SDS011;59025;42.050;-8.660;2022-08-11T00:11:08;12.88;;;7.85;;
71003;SDS011;59025;42.050;-8.660;2022-08-11T00:13:37;13.23;;;7.77;;
71003;SDS011;59025;42.050;-8.660;2022-08-11T00:16:10;13.88;;;7.70;;
71003;SDS011;59025;42.050;-8.660;2022-08-11T00:18:42;14.85;;;7.90;;
71003;SDS011;59025;42.050;-8.660;2022-08-11T00:21:11;12.95;;;7.38;;
71003;SDS011;59025;42.050;-8.660;2022-08-11T00:23:41;14.13;;;8.32;;
71003;SDS011;59025;42.050;-8.660;2022-08-11T00:26:10;12.03;;;6.93;;
71003;SDS011;59025;42.050;-8.660;2022-08-11T00:28:39;13.23;;;7.82;;
71003;SDS011;59025;42.050;-8.660;2022-08-11T00:31:08;11.85;;;7.43;;
71003;SDS011;59025;42.050;-8.660;2022-08-11T00:33:47;14.13;;;8.38;;
71003;SDS011;59025;42.050;-8.660;2022-08-11T00:36:17;12.00;;;7.72;;
71003;SDS011;59025;42.050;-8.660;2022-08-11T00:38:47;12.77;;;7.97;;
71003;SDS011;59025;42.050;-8.660;2022-08-11T00:41:32;13.40;;;8.07;;
71003;SDS011;59025;42.050;-8.660;2022-08-11T00:47:04;11.38;;;7.03;;
71003;SDS011;59025;42.050;-8.660;2022-08-11T00:49:48;9.73;;;6.38;;
71003;SDS011;59025;42.050;-8.660;2022-08-11T00:52:28;10.47;;;7.00;;
71003;SDS011;59025;42.050;-8.660;2022-08-11T01:01:26;11.18;;;6.50;;
71003;SDS011;59025;42.050;-8.660;2022-08-11T06:15:24;17.35;;;10.70;;
71003;SDS011;59025;42.050;-8.660;2022-08-11T06:18:17;16.27;;;9.60;;
71003;SDS011;59025;42.050;-8.660;2022-08-11T06:20:53;17.38;;;10.10;;
71003;SDS011;59025;42.050;-8.660;2022-08-11T06:23:23;17.00;;;10.27;;
71003;SDS011;59025;42.050;-8.660;2022-08-11T06:25:58;17.35;;;10.02;;
71003;SDS011;59025;42.050;-8.660;2022-08-11T06:28:29;15.48;;;10.40;;
71003;SDS011;59025;42.050;-8.660;2022-08-11T06:31:00;15.60;;;9.90;;
71003;SDS011;59025;42.050;-8.660;2022-08-11T07:04:29;12.83;;;7.73;;
71003;SDS011;59025;42.050;-8.660;2022-08-11T07:07:12;13.90;;;8.32;;
71003;SDS011;59025;42.050;-8.660;2022-08-11T07:13:34;14.57;;;8.55;;
71003;SDS011;59025;42.050;-8.660;2022-08-11T07:16:21;17.23;;;9.43;;
71003;SDS011;59025;42.050;-8.660;2022-08-11T07:18:53;16.63;;;8.97;;
71003;SDS011;59025;42.050;-8.660;2022-08-11T07:21:43;19.08;;;9.80;;
71003;SDS011;59025;42.050;-8.660;2022-08-11T07:24:31;18.02;;;9.73;;
71003;SDS011;59025;42.050;-8.660;2022-08-11T07:27:20;18.42;;;10.00;;
71003;SDS011;59025;42.050;-8.660;2022-08-11T07:30:09;18.45;;;10.00;;
71003;SDS011;59025;42.050;-8.660;2022-08-11T07:32:40;18.93;;;10.20;;
71003;SDS011;59025;42.050;-8.660;2022-08-11T07:35:15;18.48;;;9.80;;
71003;SDS011;59025;42.050;-8.660;2022-08-11T07:37:49;20.13;;;11.13;;
71003;SDS011;59025;42.050;-8.660;2022-08-11T07:40:22;21.27;;;10.52;;
71003;SDS011;59025;42.050;-8.660;2022-08-11T07:42:51;24.02;;;11.07;;
71003;SDS011;59025;42.050;-8.660;2022-08-11T07:45:19;22.97;;;11.07;;
71003;SDS011;59025;42.050;-8.660;2022-08-11T07:48:05;19.67;;;11.35;;
71003;SDS011;59025;42.050;-8.660;2022-08-11T07:50:52;23.27;;;11.75;;
71003;SDS011;59025;42.050;-8.660;2022-08-11T07:53:39;18.48;;;10.75;;
71003;SDS011;59025;42.050;-8.660;2022-08-11T07:56:06;18.52;;;10.60;;
71003;SDS011;59025;42.050;-8.660;2022-08-11T07:58:34;17.03;;;10.80;;
71003;SDS011;59025;42.050;-8.660;2022-08-11T08:01:20;16.92;;;10.15;;
71003;SDS011;59025;42.050;-8.660;2022-08-11T08:04:07;16.55;;;10.60;;
71003;SDS011;59025;42.050;-8.660;2022-08-11T08:06:54;18.27;;;11.55;;
71003;SDS011;59025;42.050;-8.660;2022-08-11T08:09:43;16.48;;;10.30;;
71003;SDS011;59025;42.050;-8.660;2022-08-11T08:12:29;17.00;;;10.00;;
71003;SDS011;59025;42.050;-8.660;2022-08-11T08:15:15;13.18;;;9.32;;
71003;SDS011;59025;42.050;-8.660;2022-08-11T08:18:02;15.55;;;9.95;;
71003;SDS011;59025;42.050;-8.660;2022-08-11T08:20:34;14.30;;;9.23;;
71003;SDS011;59025;42.050;-8.660;2022-08-11T08:23:03;14.18;;;9.20;;
71003;SDS011;59025;42.050;-8.660;2022-08-11T08:25:34;14.10;;;9.77;;
71003;SDS011;59025;42.050;-8.660;2022-08-11T08:28:06;13.98;;;9.75;;
71003;SDS011;59025;42.050;-8.660;2022-08-11T08:30:40;14.80;;;9.73;;
71003;SDS011;59025;42.050;-8.660;2022-08-11T08:33:17;12.85;;;9.15;;
71003;SDS011;59025;42.050;-8.660;2022-08-11T08:35:54;14.70;;;9.48;;
71003;SDS011;59025;42.050;-8.660;2022-08-11T08:38:43;14.03;;;8.40;;
71003;SDS011;59025;42.050;-8.660;2022-08-11T08:41:18;13.68;;;9.02;;
71003;SDS011;59025;42.050;-8.660;2022-08-11T08:43:54;11.68;;;8.40;;
71003;SDS011;59025;42.050;-8.660;2022-08-11T08:46:24;11.52;;;8.65;;
71003;SDS011;59025;42.050;-8.660;2022-08-11T08:48:56;11.50;;;8.27;;
71003;SDS011;59025;42.050;-8.660;2022-08-11T08:51:27;12.03;;;7.80;;
71003;SDS011;59025;42.050;-8.660;2022-08-11T08:54:02;13.52;;;8.27;;
71003;SDS011;59025;42.050;-8.660;2022-08-11T08:56:34;14.88;;;7.93;;
71003;SDS011;59025;42.050;-8.660;2022-08-11T08:59:03;10.63;;;7.93;;
71003;SDS011;59025;42.050;-8.660;2022-08-11T09:01:32;10.35;;;7.38;;
71003;SDS011;59025;42.050;-8.660;2022-08-11T09:04:06;12.07;;;7.47;;
71003;SDS011;59025;42.050;-8.660;2022-08-11T09:06:35;11.93;;;7.40;;
71003;SDS011;59025;42.050;-8.660;2022-08-11T09:09:07;10.50;;;7.25;;
71003;SDS011;59025;42.050;-8.660;2022-08-11T09:11:38;11.40;;;7.68;;
71003;SDS011;59025;42.050;-8.660;2022-08-11T09:14:18;10.38;;;7.28;;
71003;SDS011;59025;42.050;-8.660;2022-08-11T09:16:46;12.17;;;7.43;;
71003;SDS011;59025;42.050;-8.660;2022-08-11T09:19:16;13.05;;;6.93;;
71003;SDS011;59025;42.050;-8.660;2022-08-11T09:21:46;15.95;;;8.18;;
71003;SDS011;59025;42.050;-8.660;2022-08-11T09:24:37;9.70;;;7.00;;
71003;SDS011;59025;42.050;-8.660;2022-08-11T09:27:24;12.82;;;7.55;;
71003;SDS011;59025;42.050;-8.660;2022-08-11T09:29:53;11.27;;;7.47;;
71003;SDS011;59025;42.050;-8.660;2022-08-11T09:32:21;10.63;;;7.35;;
71003;SDS011;59025;42.050;-8.660;2022-08-11T09:34:49;10.98;;;6.85;;
71003;SDS011;59025;42.050;-8.660;2022-08-11T09:37:18;9.77;;;6.90;;
71003;SDS011;59025;42.050;-8.660;2022-08-11T09:40:05;9.70;;;6.80;;
71003;SDS011;59025;42.050;-8.660;2022-08-11T09:42:53;10.20;;;6.77;;
71003;SDS011;59025;42.050;-8.660;2022-08-11T09:45:38;8.95;;;6.43;;
71003;SDS011;59025;42.050;-8.660;2022-08-11T09:48:06;8.48;;;6.10;;
71003;SDS011;59025;42.050;-8.660;2022-08-11T09:50:34;10.50;;;6.43;;
71003;SDS011;59025;42.050;-8.660;2022-08-11T09:53:03;9.98;;;6.10;;
71003;SDS011;59025;42.050;-8.660;2022-08-11T09:55:31;9.53;;;6.40;;
71003;SDS011;59025;42.050;-8.660;2022-08-11T09:58:01;14.82;;;6.60;;
71003;SDS011;59025;42.050;-8.660;2022-08-11T10:00:41;10.75;;;6.43;;
71003;SDS011;59025;42.050;-8.660;2022-08-11T10:03:10;10.07;;;6.50;;
71003;SDS011;59025;42.050;-8.660;2022-08-11T10:05:39;9.25;;;6.18;;
71003;SDS011;59025;42.050;-8.660;2022-08-11T10:08:29;10.50;;;6.70;;
71003;SDS011;59025;42.050;-8.660;2022-08-11T10:10:58;9.95;;;6.35;;
71003;SDS011;59025;42.050;-8.660;2022-08-11T10:13:33;9.25;;;6.40;;
71003;SDS011;59025;42.050;-8.660;2022-08-11T10:16:31;8.57;;;6.10;;
71003;SDS011;59025;42.050;-8.660;2022-08-11T10:19:04;11.20;;;6.60;;
71003;SDS011;59025;42.050;-8.660;2022-08-11T10:21:35;10.20;;;6.50;;
71003;SDS011;59025;42.050;-8.660;2022-08-11T10:24:06;9.70;;;6.18;;
71003;SDS011;59025;42.050;-8.660;2022-08-11T10:26:52;10.13;;;6.70;;
71003;SDS011;59025;42.050;-8.660;2022-08-11T10:29:25;10.18;;;6.80;;
71003;SDS011;59025;42.050;-8.660;2022-08-11T10:32:18;11.10;;;6.18;;
71003;SDS011;59025;42.050;-8.660;2022-08-11T10:35:06;9.73;;;6.47;;
71003;SDS011;59025;42.050;-8.660;2022-08-11T10:37:37;8.90;;;6.00;;
71003;SDS011;59025;42.050;-8.660;2022-08-11T10:40:09;9.70;;;6.05;;
71003;SDS011;59025;42.050;-8.660;2022-08-11T10:42:42;9.00;;;6.40;;
71003;SDS011;59025;42.050;-8.660;2022-08-11T10:45:32;9.55;;;6.00;;
71003;SDS011;59025;42.050;-8.660;2022-08-11T10:48:19;9.30;;;6.20;;
71003;SDS011;59025;42.050;-8.660;2022-08-11T10:50:48;8.93;;;6.85;;
71003;SDS011;59025;42.050;-8.660;2022-08-11T10:53:34;11.43;;;5.90;;
71003;SDS011;59025;42.050;-8.660;2022-08-11T10:56:20;8.52;;;5.80;;
71003;SDS011;59025;42.050;-8.660;2022-08-11T10:59:07;10.32;;;6.05;;
71003;SDS011;59025;42.050;-8.660;2022-08-11T11:01:36;7.93;;;5.93;;
71003;SDS011;59025;42.050;-8.660;2022-08-11T11:04:07;10.25;;;5.78;;
71003;SDS011;59025;42.050;-8.660;2022-08-11T11:06:40;8.93;;;5.63;;
71003;SDS011;59025;42.050;-8.660;2022-08-11T11:09:18;11.25;;;6.25;;
71003;SDS011;59025;42.050;-8.660;2022-08-11T11:11:50;9.77;;;5.95;;
71003;SDS011;59025;42.050;-8.660;2022-08-11T11:14:38;9.53;;;5.80;;
71003;SDS011;59025;42.050;-8.660;2022-08-11T11:17:27;9.20;;;5.90;;
71003;SDS011;59025;42.050;-8.660;2022-08-11T11:20:16;9.75;;;6.47;;
71003;SDS011;59025;42.050;-8.660;2022-08-11T11:22:46;10.02;;;6.18;;
71003;SDS011;59025;42.050;-8.660;2022-08-11T11:25:24;9.70;;;5.65;;
71003;SDS011;59025;42.050;-8.660;2022-08-11T11:31:02;10.40;;;5.72;;
71003;SDS011;59025;42.050;-8.660;2022-08-11T11:33:46;11.70;;;6.05;;
71003;SDS011;59025;42.050;-8.660;2022-08-11T11:36:27;12.50;;;5.70;;
71003;SDS011;59025;42.050;-8.660;2022-08-11T11:39:04;10.27;;;5.60;;
71003;SDS011;59025;42.050;-8.660;2022-08-11T11:41:32;9.70;;;5.50;;
71003;SDS011;59025;42.050;-8.660;2022-08-11T11:44:00;12.88;;;5.53;;
71003;SDS011;59025;42.050;-8.660;2022-08-11T11:46:28;12.50;;;5.80;;
71003;SDS011;59025;42.050;-8.660;2022-08-11T11:48:59;9.95;;;5.95;;
71003;SDS011;59025;42.050;-8.660;2022-08-11T11:51:32;9.13;;;5.72;;
71003;SDS011;59025;42.050;-8.660;2022-08-11T11:53:59;11.20;;;5.63;;
71003;SDS011;59025;42.050;-8.660;2022-08-11T11:56:29;10.90;;;5.75;;
71003;SDS011;59025;42.050;-8.660;2022-08-11T11:58:57;11.30;;;5.80;;
71003;SDS011;59025;42.050;-8.660;2022-08-11T12:01:42;9.63;;;6.45;;
71003;SDS011;59025;42.050;-8.660;2022-08-11T12:04:12;9.43;;;6.15;;
71003;SDS011;59025;42.050;-8.660;2022-08-11T12:06:42;9.73;;;6.17;;
71003;SDS011;59025;42.050;-8.660;2022-08-11T12:09:11;11.35;;;6.07;;
71003;SDS011;59025;42.050;-8.660;2022-08-11T12:11:45;9.25;;;5.68;;
71003;SDS011;59025;42.050;-8.660;2022-08-11T12:14:44;10.65;;;5.90;;
71003;SDS011;59025;42.050;-8.660;2022-08-11T12:17:12;14.07;;;6.45;;
71003;SDS011;59025;42.050;-8.660;2022-08-11T12:19:41;10.67;;;6.13;;
71003;SDS011;59025;42.050;-8.660;2022-08-11T12:22:08;9.90;;;6.18;;
71003;SDS011;59025;42.050;-8.660;2022-08-11T12:24:53;14.27;;;6.05;;
71003;SDS011;59025;42.050;-8.660;2022-08-11T12:27:39;11.07;;;6.32;;
71003;SDS011;59025;42.050;-8.660;2022-08-11T12:30:07;11.77;;;5.70;;
71003;SDS011;59025;42.050;-8.660;2022-08-11T12:32:36;12.13;;;6.10;;
71003;SDS011;59025;42.050;-8.660;2022-08-11T12:35:07;11.93;;;6.25;;
71003;SDS011;59025;42.050;-8.660;2022-08-11T12:37:37;9.90;;;5.22;;
71003;SDS011;59025;42.050;-8.660;2022-08-11T12:40:07;8.77;;;5.60;;
71003;SDS011;59025;42.050;-8.660;2022-08-11T12:42:55;10.27;;;5.45;;
71003;SDS011;59025;42.050;-8.660;2022-08-11T12:45:47;9.77;;;5.57;;
71003;SDS011;59025;42.050;-8.660;2022-08-11T12:48:22;11.70;;;6.03;;
71003;SDS011;59025;42.050;-8.660;2022-08-11T12:51:15;9.68;;;5.47;;
71003;SDS011;59025;42.050;-8.660;2022-08-11T12:54:06;10.35;;;5.38;;
71003;SDS011;59025;42.050;-8.660;2022-08-11T12:56:38;10.27;;;5.40;;
71003;SDS011;59025;42.050;-8.660;2022-08-11T12:59:25;13.27;;;5.60;;
71003;SDS011;59025;42.050;-8.660;2022-08-11T13:02:11;11.98;;;5.38;;
71003;SDS011;59025;42.050;-8.660;2022-08-11T13:05:00;11.18;;;5.20;;
71003;SDS011;59025;42.050;-8.660;2022-08-11T13:07:30;12.95;;;5.97;;
71003;SDS011;59025;42.050;-8.660;2022-08-11T13:09:59;13.80;;;5.90;;
71003;SDS011;59025;42.050;-8.660;2022-08-11T13:12:29;10.30;;;5.70;;
71003;SDS011;59025;42.050;-8.660;2022-08-11T13:15:14;12.65;;;5.72;;
71003;SDS011;59025;42.050;-8.660;2022-08-11T13:17:43;14.98;;;5.95;;
71003;SDS011;59025;42.050;-8.660;2022-08-11T13:20:14;14.07;;;5.38;;
71003;SDS011;59025;42.050;-8.660;2022-08-11T13:22:46;10.95;;;5.80;;
71003;SDS011;59025;42.050;-8.660;2022-08-11T13:25:15;8.43;;;5.07;;
71003;SDS011;59025;42.050;-8.660;2022-08-11T13:27:45;13.07;;;6.13;;
71003;SDS011;59025;42.050;-8.660;2022-08-11T13:30:14;11.63;;;5.35;;
71003;SDS011;59025;42.050;-8.660;2022-08-11T13:33:00;15.38;;;5.90;;
71003;SDS011;59025;42.050;-8.660;2022-08-11T13:35:28;12.00;;;4.95;;
71003;SDS011;59025;42.050;-8.660;2022-08-11T13:38:00;9.10;;;5.30;;
71003;SDS011;59025;42.050;-8.660;2022-08-11T13:40:29;9.85;;;5.65;;
71003;SDS011;59025;42.050;-8.660;2022-08-11T13:43:01;12.35;;;5.20;;
71003;SDS011;59025;42.050;-8.660;2022-08-11T13:45:29;12.98;;;5.25;;
71003;SDS011;59025;42.050;-8.660;2022-08-11T13:47:57;9.55;;;4.60;;
71003;SDS011;59025;42.050;-8.660;2022-08-11T13:50:26;10.87;;;5.27;;
71003;SDS011;59025;42.050;-8.660;2022-08-11T13:53:08;8.93;;;5.10;;
71003;SDS011;59025;42.050;-8.660;2022-08-11T13:55:37;13.40;;;4.90;;
71003;SDS011;59025;42.050;-8.660;2022-08-11T13:58:06;9.38;;;4.82;;
71003;SDS011;59025;42.050;-8.660;2022-08-11T14:00:36;8.38;;;4.70;;
71003;SDS011;59025;42.050;-8.660;2022-08-11T14:03:04;9.70;;;5.00;;
71003;SDS011;59025;42.050;-8.660;2022-08-11T14:05:36;10.55;;;5.15;;
71003;SDS011;59025;42.050;-8.660;2022-08-11T14:08:10;9.95;;;5.07;;
71003;SDS011;59025;42.050;-8.660;2022-08-11T14:10:42;11.07;;;5.22;;
71003;SDS011;59025;42.050;-8.660;2022-08-11T14:13:33;10.73;;;5.18;;
71003;SDS011;59025;42.050;-8.660;2022-08-11T14:16:04;10.50;;;5.00;;
71003;SDS011;59025;42.050;-8.660;2022-08-11T14:18:37;12.40;;;5.38;;
71003;SDS011;59025;42.050;-8.660;2022-08-11T14:21:10;13.15;;;4.95;;
71003;SDS011;59025;42.050;-8.660;2022-08-11T14:23:59;9.38;;;5.07;;
71003;SDS011;59025;42.050;-8.660;2022-08-11T14:26:28;9.95;;;4.85;;
71003;SDS011;59025;42.050;-8.660;2022-08-11T14:29:04;11.67;;;4.90;;
71003;SDS011;59025;42.050;-8.660;2022-08-11T14:31:35;11.93;;;4.60;;
71003;SDS011;59025;42.050;-8.660;2022-08-11T14:34:06;9.80;;;4.50;;
71003;SDS011;59025;42.050;-8.660;2022-08-11T14:36:37;11.70;;;5.20;;
71003;SDS011;59025;42.050;-8.660;2022-08-11T14:39:09;11.88;;;4.63;;
71003;SDS011;59025;42.050;-8.660;2022-08-11T14:41:38;9.37;;;4.77;;
71003;SDS011;59025;42.050;-8.660;2022-08-11T14:44:25;10.65;;;4.55;;
71003;SDS011;59025;42.050;-8.660;2022-08-11T14:47:10;11.43;;;5.38;;
71003;SDS011;59025;42.050;-8.660;2022-08-11T14:49:40;9.55;;;5.10;;
71003;SDS011;59025;42.050;-8.660;2022-08-11T14:52:08;12.15;;;5.50;;
71003;SDS011;59025;42.050;-8.660;2022-08-11T14:54:40;9.83;;;4.60;;
71003;SDS011;59025;42.050;-8.660;2022-08-11T14:57:27;10.60;;;5.05;;
71003;SDS011;59025;42.050;-8.660;2022-08-11T14:59:57;11.18;;;5.07;;
71003;SDS011;59025;42.050;-8.660;2022-08-11T15:02:27;9.60;;;5.00;;
71003;SDS011;59025;42.050;-8.660;2022-08-11T15:05:13;11.60;;;5.20;;
71003;SDS011;59025;42.050;-8.660;2022-08-11T15:07:41;11.53;;;5.30;;
71003;SDS011;59025;42.050;-8.660;2022-08-11T15:10:15;13.30;;;5.22;;
71003;SDS011;59025;42.050;-8.660;2022-08-11T15:12:44;14.35;;;5.70;;
71003;SDS011;59025;42.050;-8.660;2022-08-11T15:15:13;8.18;;;4.70;;
71003;SDS011;59025;42.050;-8.660;2022-08-11T15:17:59;11.40;;;4.70;;
71003;SDS011;59025;42.050;-8.660;2022-08-11T15:20:31;10.47;;;4.67;;
71003;SDS011;59025;42.050;-8.660;2022-08-11T15:23:16;9.45;;;4.50;;
71003;SDS011;59025;42.050;-8.660;2022-08-11T15:26:03;9.98;;;4.70;;
71003;SDS011;59025;42.050;-8.660;2022-08-11T15:28:35;12.02;;;4.72;;
71003;SDS011;59025;42.050;-8.660;2022-08-11T15:31:24;13.88;;;4.82;;
71003;SDS011;59025;42.050;-8.660;2022-08-11T15:34:11;8.50;;;4.70;;
71003;SDS011;59025;42.050;-8.660;2022-08-11T15:37:00;7.82;;;4.30;;
71003;SDS011;59025;42.050;-8.660;2022-08-11T15:39:49;10.68;;;4.40;;
71003;SDS011;59025;42.050;-8.660;2022-08-11T15:42:39;8.23;;;4.60;;
71003;SDS011;59025;42.050;-8.660;2022-08-11T15:45:38;10.45;;;4.38;;
71003;SDS011;59025;42.050;-8.660;2022-08-11T15:48:15;8.80;;;4.00;;
71003;SDS011;59025;42.050;-8.660;2022-08-11T15:50:59;11.88;;;4.28;;
71003;SDS011;59025;42.050;-8.660;2022-08-11T15:53:37;10.60;;;4.78;;
71003;SDS011;59025;42.050;-8.660;2022-08-11T15:56:08;10.52;;;5.25;;
71003;SDS011;59025;42.050;-8.660;2022-08-11T15:58:40;7.68;;;4.38;;
71003;SDS011;59025;42.050;-8.660;2022-08-11T16:01:26;11.87;;;4.00;;
71003;SDS011;59025;42.050;-8.660;2022-08-11T16:04:15;8.38;;;3.67;;
71003;SDS011;59025;42.050;-8.660;2022-08-11T16:06:52;7.65;;;3.55;;
71003;SDS011;59025;42.050;-8.660;2022-08-11T16:09:25;7.90;;;3.42;;
71003;SDS011;59025;42.050;-8.660;2022-08-11T16:11:56;7.97;;;3.60;;
71003;SDS011;59025;42.050;-8.660;2022-08-11T16:14:29;7.37;;;4.00;;
71003;SDS011;59025;42.050;-8.660;2022-08-11T16:17:17;9.50;;;4.43;;
71003;SDS011;59025;42.050;-8.660;2022-08-11T16:19:47;8.00;;;4.03;;
71003;SDS011;59025;42.050;-8.660;2022-08-11T16:22:19;10.63;;;4.68;;
71003;SDS011;59025;42.050;-8.660;2022-08-11T16:24:56;10.05;;;4.40;;
71003;SDS011;59025;42.050;-8.660;2022-08-11T16:27:25;10.90;;;4.60;;
71003;SDS011;59025;42.050;-8.660;2022-08-11T16:29:55;8.30;;;4.45;;
71003;SDS011;59025;42.050;-8.660;2022-08-11T16:32:23;9.18;;;4.30;;
71003;SDS011;59025;42.050;-8.660;2022-08-11T16:34:53;9.23;;;4.60;;
71003;SDS011;59025;42.050;-8.660;2022-08-11T16:37:40;10.27;;;4.45;;
71003;SDS011;59025;42.050;-8.660;2022-08-11T16:40:27;11.57;;;4.50;;
71003;SDS011;59025;42.050;-8.660;2022-08-11T16:42:56;9.82;;;4.60;;
71003;SDS011;59025;42.050;-8.660;2022-08-11T16:45:43;8.55;;;4.10;;
71003;SDS011;59025;42.050;-8.660;2022-08-11T16:48:31;8.85;;;4.32;;
71003;SDS011;59025;42.050;-8.660;2022-08-11T16:51:01;10.80;;;4.53;;
71003;SDS011;59025;42.050;-8.660;2022-08-11T16:53:29;8.70;;;4.10;;
71003;SDS011;59025;42.050;-8.660;2022-08-11T16:55:57;8.77;;;4.22;;
71003;SDS011;59025;42.050;-8.660;2022-08-11T16:58:27;8.02;;;4.40;;
71003;SDS011;59025;42.050;-8.660;2022-08-11T17:01:15;9.02;;;4.13;;
71003;SDS011;59025;42.050;-8.660;2022-08-11T17:03:50;10.35;;;4.20;;
71003;SDS011;59025;42.050;-8.660;2022-08-11T17:06:37;8.80;;;3.97;;
71003;SDS011;59025;42.050;-8.660;2022-08-11T17:09:28;9.02;;;4.78;;
71003;SDS011;59025;42.050;-8.660;2022-08-11T17:12:17;10.88;;;4.93;;
71003;SDS011;59025;42.050;-8.660;2022-08-11T17:15:05;9.13;;;4.75;;
71003;SDS011;59025;42.050;-8.660;2022-08-11T17:17:58;11.30;;;4.70;;
71003;SDS011;59025;42.050;-8.660;2022-08-11T17:20:28;11.30;;;4.90;;
71003;SDS011;59025;42.050;-8.660;2022-08-11T17:22:58;9.55;;;3.90;;
71003;SDS011;59025;42.050;-8.660;2022-08-11T17:25:45;10.50;;;4.40;;
71003;SDS011;59025;42.050;-8.660;2022-08-11T17:28:14;13.02;;;4.75;;
71003;SDS011;59025;42.050;-8.660;2022-08-11T17:30:47;11.27;;;4.78;;
71003;SDS011;59025;42.050;-8.660;2022-08-11T17:33:34;9.23;;;4.30;;
71003;SDS011;59025;42.050;-8.660;2022-08-11T17:36:20;8.45;;;4.25;;
71003;SDS011;59025;42.050;-8.660;2022-08-11T17:38:49;10.98;;;4.63;;
71003;SDS011;59025;42.050;-8.660;2022-08-11T17:41:18;10.68;;;4.63;;
71003;SDS011;59025;42.050;-8.660;2022-08-11T17:44:05;10.20;;;4.90;;
71003;SDS011;59025;42.050;-8.660;2022-08-11T17:46:50;14.30;;;4.37;;
71003;SDS011;59025;42.050;-8.660;2022-08-11T17:49:37;14.05;;;5.03;;
71003;SDS011;59025;42.050;-8.660;2022-08-11T17:52:05;9.70;;;4.30;;
71003;SDS011;59025;42.050;-8.660;2022-08-11T17:54:53;8.75;;;4.60;;
71003;SDS011;59025;42.050;-8.660;2022-08-11T17:57:39;11.13;;;4.65;;
71003;SDS011;59025;42.050;-8.660;2022-08-11T18:00:26;10.63;;;4.57;;
71003;SDS011;59025;42.050;-8.660;2022-08-11T18:02:56;12.32;;;4.57;;
71003;SDS011;59025;42.050;-8.660;2022-08-11T18:05:45;9.65;;;4.80;;
71003;SDS011;59025;42.050;-8.660;2022-08-11T18:08:13;9.75;;;4.10;;
71003;SDS011;59025;42.050;-8.660;2022-08-11T18:11:00;9.95;;;4.80;;
71003;SDS011;59025;42.050;-8.660;2022-08-11T18:13:47;12.47;;;4.30;;
71003;SDS011;59025;42.050;-8.660;2022-08-11T18:16:34;12.52;;;4.60;;
71003;SDS011;59025;42.050;-8.660;2022-08-11T18:19:18;11.50;;;4.65;;
71003;SDS011;59025;42.050;-8.660;2022-08-11T18:22:07;12.20;;;4.63;;
71003;SDS011;59025;42.050;-8.660;2022-08-11T18:24:53;12.40;;;4.80;;
71003;SDS011;59025;42.050;-8.660;2022-08-11T18:27:42;8.03;;;4.53;;
71003;SDS011;59025;42.050;-8.660;2022-08-11T18:30:30;13.75;;;5.00;;
71003;SDS011;59025;42.050;-8.660;2022-08-11T18:33:20;9.63;;;4.97;;
71003;SDS011;59025;42.050;-8.660;2022-08-11T18:36:07;9.27;;;5.03;;
71003;SDS011;59025;42.050;-8.660;2022-08-11T18:38:57;12.93;;;5.45;;
71003;SDS011;59025;42.050;-8.660;2022-08-11T18:41:44;18.37;;;5.80;;
71003;SDS011;59025;42.050;-8.660;2022-08-11T18:44:31;12.93;;;4.97;;
71003;SDS011;59025;42.050;-8.660;2022-08-11T18:47:18;12.85;;;5.30;;
71003;SDS011;59025;42.050;-8.660;2022-08-11T18:50:05;13.15;;;5.18;;
71003;SDS011;59025;42.050;-8.660;2022-08-11T18:52:52;12.95;;;5.32;;
71003;SDS011;59025;42.050;-8.660;2022-08-11T18:55:40;13.67;;;4.93;;
71003;SDS011;59025;42.050;-8.660;2022-08-11T18:58:28;9.98;;;5.00;;
71003;SDS011;59025;42.050;-8.660;2022-08-11T19:01:15;10.63;;;4.60;;
71003;SDS011;59025;42.050;-8.660;2022-08-11T19:04:02;10.50;;;5.30;;
71003;SDS011;59025;42.050;-8.660;2022-08-11T19:06:49;11.27;;;5.40;;
71003;SDS011;59025;42.050;-8.660;2022-08-11T19:09:36;10.33;;;4.67;;
71003;SDS011;59025;42.050;-8.660;2022-08-11T19:12:26;11.77;;;4.80;;
71003;SDS011;59025;42.050;-8.660;2022-08-11T19:15:16;11.65;;;4.95;;
71003;SDS011;59025;42.050;-8.660;2022-08-11T19:18:02;11.60;;;5.43;;
71003;SDS011;59025;42.050;-8.660;2022-08-11T19:20:48;12.93;;;6.05;;
71003;SDS011;59025;42.050;-8.660;2022-08-11T19:23:35;16.20;;;5.80;;
71003;SDS011;59025;42.050;-8.660;2022-08-11T19:26:25;19.60;;;5.60;;
71003;SDS011;59025;42.050;-8.660;2022-08-11T19:29:13;13.02;;;5.82;;
71003;SDS011;59025;42.050;-8.660;2022-08-11T19:31:59;13.55;;;5.57;;
71003;SDS011;59025;42.050;-8.660;2022-08-11T19:34:46;13.15;;;6.10;;
71003;SDS011;59025;42.050;-8.660;2022-08-11T19:37:31;13.40;;;5.83;;
71003;SDS011;59025;42.050;-8.660;2022-08-11T19:40:18;12.23;;;5.55;;
71003;SDS011;59025;42.050;-8.660;2022-08-11T19:43:04;13.65;;;6.10;;
71003;SDS011;59025;42.050;-8.660;2022-08-11T19:45:53;14.35;;;7.35;;
71003;SDS011;59025;42.050;-8.660;2022-08-11T19:48:44;13.15;;;6.90;;
71003;SDS011;59025;42.050;-8.660;2022-08-11T19:51:30;16.20;;;6.20;;
71003;SDS011;59025;42.050;-8.660;2022-08-11T19:54:18;13.93;;;5.85;;
71003;SDS011;59025;42.050;-8.660;2022-08-11T19:57:03;12.07;;;5.53;;
71003;SDS011;59025;42.050;-8.660;2022-08-11T19:59:49;11.63;;;6.03;;
71003;SDS011;59025;42.050;-8.660;2022-08-11T20:02:35;13.48;;;5.07;;
71003;SDS011;59025;42.050;-8.660;2022-08-11T20:05:20;10.53;;;5.50;;
71003;SDS011;59025;42.050;-8.660;2022-08-11T20:08:05;15.43;;;5.93;;
71003;SDS011;59025;42.050;-8.660;2022-08-11T20:10:50;15.00;;;5.65;;
71003;SDS011;59025;42.050;-8.660;2022-08-11T20:13:38;13.38;;;5.28;;
71003;SDS011;59025;42.050;-8.660;2022-08-11T20:16:26;13.52;;;5.80;;
71003;SDS011;59025;42.050;-8.660;2022-08-11T20:19:13;15.53;;;5.50;;
71003;SDS011;59025;42.050;-8.660;2022-08-11T20:21:59;12.88;;;5.82;;
71003;SDS011;59025;42.050;-8.660;2022-08-11T20:24:44;12.45;;;5.88;;
71003;SDS011;59025;42.050;-8.660;2022-08-11T20:27:32;13.32;;;5.63;;
71003;SDS011;59025;42.050;-8.660;2022-08-11T20:30:19;11.02;;;5.88;;
71003;SDS011;59025;42.050;-8.660;2022-08-11T20:33:04;9.83;;;5.87;;
71003;SDS011;59025;42.050;-8.660;2022-08-11T20:35:52;12.68;;;5.65;;
71003;SDS011;59025;42.050;-8.660;2022-08-11T20:38:37;12.73;;;5.78;;
71003;SDS011;59025;42.050;-8.660;2022-08-11T20:41:23;12.52;;;5.78;;
71003;SDS011;59025;42.050;-8.660;2022-08-11T20:44:10;15.07;;;6.22;;
71003;SDS011;59025;42.050;-8.660;2022-08-11T20:46:54;14.37;;;5.60;;
71003;SDS011;59025;42.050;-8.660;2022-08-11T20:49:40;10.63;;;5.65;;
71003;SDS011;59025;42.050;-8.660;2022-08-11T20:52:29;16.17;;;5.90;;
71003;SDS011;59025;42.050;-8.660;2022-08-11T20:55:15;12.43;;;6.15;;
71003;SDS011;59025;42.050;-8.660;2022-08-11T20:58:02;12.52;;;5.82;;
71003;SDS011;59025;42.050;-8.660;2022-08-11T21:00:47;12.97;;;6.23;;
71003;SDS011;59025;42.050;-8.660;2022-08-11T21:03:34;16.45;;;7.00;;
71003;SDS011;59025;42.050;-8.660;2022-08-11T21:06:19;16.27;;;6.25;;
71003;SDS011;59025;42.050;-8.660;2022-08-11T21:09:07;12.77;;;5.97;;
71003;SDS011;59025;42.050;-8.660;2022-08-11T21:11:53;12.15;;;6.00;;
71003;SDS011;59025;42.050;-8.660;2022-08-11T21:14:41;14.47;;;6.47;;
71003;SDS011;59025;42.050;-8.660;2022-08-11T21:17:25;15.15;;;7.00;;
71003;SDS011;59025;42.050;-8.660;2022-08-11T21:20:15;11.40;;;6.35;;
71003;SDS011;59025;42.050;-8.660;2022-08-11T21:23:02;12.02;;;7.40;;
71003;SDS011;59025;42.050;-8.660;2022-08-11T21:25:52;12.63;;;5.97;;
71003;SDS011;59025;42.050;-8.660;2022-08-11T21:28:41;13.50;;;6.53;;